createdAt,value
2018-06-19T00:00:09.798Z,15.20
2018-06-19T00:01:16.178Z,15.20
2018-06-19T00:02:20.057Z,15.10
2018-06-19T00:03:23.801Z,15.10
2018-06-19T00:04:27.640Z,15.10
2018-06-19T00:05:31.892Z,15.10
2018-06-19T00:06:36.297Z,15.00
2018-06-19T00:07:40.153Z,15.10
2018-06-19T00:08:44.164Z,15.10
2018-06-19T00:09:47.863Z,15.10
2018-06-19T00:10:51.532Z,15.10
2018-06-19T00:11:55.363Z,15.10
2018-06-19T00:12:59.328Z,15.00
2018-06-19T00:14:03.431Z,15.00
2018-06-19T00:15:07.311Z,15.00
2018-06-19T00:16:11.390Z,15.00
2018-06-19T00:17:15.085Z,15.00
2018-06-19T00:18:23.025Z,15.00
2018-06-19T00:19:28.766Z,14.90
2018-06-19T00:20:32.806Z,14.90
2018-06-19T00:21:42.638Z,14.80
2018-06-19T00:22:46.157Z,14.80
2018-06-19T00:23:49.869Z,14.80
2018-06-19T00:24:53.845Z,14.70
2018-06-19T00:25:57.550Z,14.70
2018-06-19T00:27:01.306Z,14.70
2018-06-19T00:28:05.164Z,14.70
2018-06-19T00:29:08.883Z,14.70
2018-06-19T00:30:13.325Z,14.70
2018-06-19T00:31:17.113Z,14.70
2018-06-19T00:32:20.890Z,14.60
2018-06-19T00:33:24.594Z,14.70
2018-06-19T00:34:28.468Z,14.60
2018-06-19T00:35:32.200Z,14.70
2018-06-19T00:36:36.023Z,14.70
2018-06-19T00:37:39.820Z,14.60
2018-06-19T00:38:43.665Z,14.70
2018-06-19T00:39:47.396Z,14.60
2018-06-19T00:40:51.235Z,14.60
2018-06-19T00:41:54.935Z,14.70
2018-06-19T00:42:58.562Z,14.60
2018-06-19T00:44:02.513Z,14.60
2018-06-19T00:45:06.531Z,14.60
2018-06-19T00:46:10.364Z,14.60
2018-06-19T00:47:13.981Z,14.60
2018-06-19T00:48:17.744Z,14.60
2018-06-19T00:49:21.518Z,14.60
2018-06-19T00:50:25.225Z,14.50
2018-06-19T00:51:28.970Z,14.50
2018-06-19T00:52:33.033Z,14.50
2018-06-19T00:53:36.867Z,14.60
2018-06-19T00:54:40.618Z,14.50
2018-06-19T00:55:44.162Z,14.50
2018-06-19T00:56:56.236Z,14.60
2018-06-19T00:57:59.793Z,14.60
2018-06-19T00:59:03.307Z,14.70
2018-06-19T01:00:07.102Z,14.60
2018-06-19T01:01:10.745Z,14.70
2018-06-19T01:02:14.339Z,14.70
2018-06-19T01:03:17.906Z,14.80
2018-06-19T01:04:21.659Z,14.80
2018-06-19T01:05:25.200Z,14.90
2018-06-19T01:06:28.716Z,15.00
2018-06-19T01:07:32.276Z,15.00
2018-06-19T01:08:35.833Z,15.10
2018-06-19T01:09:39.300Z,15.10
2018-06-19T01:10:42.865Z,15.20
2018-06-19T01:11:46.478Z,15.30
2018-06-19T01:12:50.048Z,15.30
2018-06-19T01:13:53.605Z,15.40
2018-06-19T01:14:57.194Z,15.50
2018-06-19T01:16:00.781Z,15.60
2018-06-19T01:17:04.313Z,15.60
2018-06-19T01:18:07.813Z,15.70
2018-06-19T01:19:11.419Z,15.70
2018-06-19T01:20:14.910Z,15.80
2018-06-19T01:21:18.420Z,15.90
2018-06-19T01:23:25.774Z,16.00
2018-06-19T01:24:29.515Z,16.10
2018-06-19T01:25:33.172Z,16.10
2018-06-19T01:26:36.771Z,16.20
2018-06-19T01:27:40.246Z,16.30
2018-06-19T01:28:43.831Z,16.30
2018-06-19T01:29:47.346Z,16.20
2018-06-19T01:31:54.196Z,16.20
2018-06-19T01:32:57.774Z,16.20
2018-06-19T01:34:01.292Z,16.30
2018-06-19T01:35:04.809Z,16.30
2018-06-19T01:36:08.327Z,16.30
2018-06-19T01:37:12.027Z,16.20
2018-06-19T01:38:15.539Z,16.20
2018-06-19T01:39:19.032Z,16.20
2018-06-19T01:40:22.752Z,16.20
2018-06-19T01:41:26.271Z,16.30
2018-06-19T01:42:29.882Z,16.40
2018-06-19T01:43:33.529Z,16.50
2018-06-19T01:44:37.081Z,16.40
2018-06-19T01:45:40.590Z,16.40
2018-06-19T01:46:44.057Z,16.50
2018-06-19T01:47:47.649Z,16.50
2018-06-19T01:48:51.138Z,16.40
2018-06-19T01:49:54.659Z,16.50
2018-06-19T01:50:58.183Z,16.40
2018-06-19T01:52:01.763Z,16.40
2018-06-19T01:53:05.264Z,16.50
2018-06-19T01:54:08.767Z,16.50
2018-06-19T01:55:12.403Z,16.50
2018-06-19T01:56:16.017Z,16.40
2018-06-19T01:57:19.492Z,16.40
2018-06-19T01:58:23.096Z,16.40
2018-06-19T01:59:26.645Z,16.40
2018-06-19T02:00:30.306Z,16.40
2018-06-19T02:01:33.821Z,16.40
2018-06-19T02:02:37.411Z,16.30
2018-06-19T02:03:40.961Z,16.30
2018-06-19T02:04:44.528Z,16.30
2018-06-19T02:05:48.131Z,16.20
2018-06-19T02:06:51.809Z,16.20
2018-06-19T02:07:55.383Z,16.30
2018-06-19T02:08:59.198Z,16.30
2018-06-19T02:10:02.754Z,16.30
2018-06-19T02:11:06.388Z,16.30
2018-06-19T02:12:09.974Z,16.30
2018-06-19T02:13:13.669Z,16.30
2018-06-19T02:14:17.181Z,16.20
2018-06-19T02:15:20.617Z,16.30
2018-06-19T02:16:24.284Z,16.30
2018-06-19T02:17:28.024Z,16.30
2018-06-19T02:18:31.562Z,16.30
2018-06-19T02:19:35.075Z,16.30
2018-06-19T02:20:38.563Z,16.30
2018-06-19T02:21:42.039Z,16.30
2018-06-19T02:22:45.622Z,16.30
2018-06-19T02:23:49.109Z,16.30
2018-06-19T02:24:52.593Z,16.30
2018-06-19T02:25:56.194Z,16.30
2018-06-19T02:26:59.726Z,16.30
2018-06-19T02:28:03.294Z,16.30
2018-06-19T02:29:06.948Z,16.40
2018-06-19T02:30:10.476Z,16.40
2018-06-19T02:31:14.195Z,16.50
2018-06-19T02:32:17.699Z,16.50
2018-06-19T02:33:21.228Z,16.50
2018-06-19T02:34:25.468Z,16.50
2018-06-19T02:35:28.985Z,16.40
2018-06-19T02:36:32.805Z,16.40
2018-06-19T02:37:36.299Z,16.40
2018-06-19T02:38:39.906Z,16.40
2018-06-19T02:39:43.638Z,16.30
2018-06-19T02:40:47.324Z,16.30
2018-06-19T02:41:50.879Z,16.30
2018-06-19T02:42:54.458Z,16.30
2018-06-19T02:43:57.993Z,16.30
2018-06-19T02:45:01.665Z,16.30
2018-06-19T02:46:05.270Z,16.30
2018-06-19T02:47:08.860Z,16.40
2018-06-19T02:48:12.873Z,16.30
2018-06-19T02:49:16.555Z,16.40
2018-06-19T02:50:20.270Z,16.30
2018-06-19T02:51:23.961Z,16.40
2018-06-19T02:52:27.578Z,16.30
2018-06-19T02:53:31.234Z,16.30
2018-06-19T02:54:34.940Z,16.30
2018-06-19T02:55:38.681Z,16.30
2018-06-19T02:56:42.465Z,16.40
2018-06-19T02:57:46.081Z,16.40
2018-06-19T02:58:49.717Z,16.40
2018-06-19T02:59:53.321Z,16.40
2018-06-19T03:00:56.958Z,16.40
2018-06-19T03:02:00.664Z,16.30
2018-06-19T03:03:04.314Z,16.30
2018-06-19T03:04:07.936Z,16.30
2018-06-19T03:05:11.633Z,16.30
2018-06-19T03:06:15.702Z,16.40
2018-06-19T03:07:19.464Z,16.30
2018-06-19T03:08:23.269Z,16.30
2018-06-19T03:09:26.859Z,16.30
2018-06-19T03:10:30.638Z,16.30
2018-06-19T03:11:34.267Z,16.40
2018-06-19T03:12:37.939Z,16.30
2018-06-19T03:13:41.514Z,16.30
2018-06-19T03:14:45.418Z,16.30
2018-06-19T03:15:49.034Z,16.50
2018-06-19T03:16:52.784Z,16.50
2018-06-19T03:17:56.440Z,16.50
2018-06-19T03:19:00.059Z,16.60
2018-06-19T03:20:03.709Z,16.60
2018-06-19T03:21:07.345Z,16.60
2018-06-19T03:22:11.246Z,16.70
2018-06-19T03:23:15.680Z,16.70
2018-06-19T03:24:19.353Z,16.60
2018-06-19T03:25:23.515Z,16.70
2018-06-19T03:26:27.210Z,16.70
2018-06-19T03:27:30.916Z,16.60
2018-06-19T03:28:34.614Z,16.70
2018-06-19T03:29:38.278Z,16.70
2018-06-19T03:30:42.006Z,16.80
2018-06-19T03:31:45.570Z,16.90
2018-06-19T03:32:49.224Z,16.90
2018-06-19T03:33:52.830Z,16.90
2018-06-19T03:34:56.467Z,16.80
2018-06-19T03:36:00.088Z,16.80
2018-06-19T03:37:03.795Z,16.80
2018-06-19T03:38:07.461Z,16.80
2018-06-19T03:39:12.903Z,16.80
2018-06-19T03:40:16.991Z,16.70
2018-06-19T03:41:20.559Z,16.70
2018-06-19T03:42:24.172Z,16.70
2018-06-19T03:43:27.849Z,16.70
2018-06-19T03:44:31.561Z,16.60
2018-06-19T03:45:35.232Z,16.60
2018-06-19T03:46:38.951Z,16.60
2018-06-19T03:47:42.663Z,16.60
2018-06-19T03:48:46.539Z,16.60
2018-06-19T03:49:50.228Z,16.60
2018-06-19T03:50:53.936Z,16.60
2018-06-19T03:51:57.713Z,16.60
2018-06-19T03:53:01.327Z,16.70
2018-06-19T03:54:05.138Z,16.60
2018-06-19T03:55:08.774Z,16.70
2018-06-19T03:56:12.973Z,16.70
2018-06-19T03:57:16.601Z,16.80
2018-06-19T03:58:20.340Z,16.80
2018-06-19T03:59:24.194Z,16.80
2018-06-19T04:00:27.911Z,16.80
2018-06-19T04:01:31.604Z,16.80
2018-06-19T04:02:35.253Z,16.80
2018-06-19T04:03:38.980Z,16.90
2018-06-19T04:04:42.618Z,16.90
2018-06-19T04:05:46.260Z,16.90
2018-06-19T04:06:49.922Z,16.90
2018-06-19T04:07:53.511Z,16.90
2018-06-19T04:08:57.168Z,16.90
2018-06-19T04:10:01.255Z,16.90
2018-06-19T04:11:05.018Z,17.00
2018-06-19T04:12:08.884Z,17.00
2018-06-19T04:13:12.917Z,16.90
2018-06-19T04:14:16.686Z,16.90
2018-06-19T04:15:20.375Z,17.00
2018-06-19T04:16:24.291Z,17.10
2018-06-19T04:17:28.691Z,17.10
2018-06-19T04:18:32.365Z,17.10
2018-06-19T04:19:36.072Z,17.10
2018-06-19T04:20:39.763Z,17.20
2018-06-19T04:21:43.435Z,17.10
2018-06-19T04:22:47.171Z,17.10
2018-06-19T04:23:50.909Z,17.10
2018-06-19T04:24:54.670Z,17.00
2018-06-19T04:25:58.348Z,17.00
2018-06-19T04:27:02.136Z,17.00
2018-06-19T04:28:06.107Z,17.10
2018-06-19T04:29:09.893Z,17.10
2018-06-19T04:30:13.745Z,17.10
2018-06-19T04:31:17.429Z,17.00
2018-06-19T04:32:21.067Z,17.10
2018-06-19T04:33:24.710Z,17.20
2018-06-19T04:34:28.428Z,17.20
2018-06-19T04:35:32.167Z,17.10
2018-06-19T04:36:36.376Z,17.20
2018-06-19T04:37:40.134Z,17.10
2018-06-19T04:38:43.770Z,17.20
2018-06-19T04:39:47.570Z,17.20
2018-06-19T04:40:51.221Z,17.20
2018-06-19T04:41:54.937Z,17.20
2018-06-19T04:42:58.701Z,17.20
2018-06-19T04:44:02.306Z,17.20
2018-06-19T04:45:06.435Z,17.20
2018-06-19T04:46:10.191Z,17.20
2018-06-19T04:47:14.597Z,17.20
2018-06-19T04:48:18.253Z,17.20
2018-06-19T04:49:21.960Z,17.10
2018-06-19T04:50:25.643Z,17.30
2018-06-19T04:51:29.605Z,17.40
2018-06-19T04:52:33.445Z,17.40
2018-06-19T04:53:37.360Z,17.40
2018-06-19T04:54:40.978Z,17.40
2018-06-19T04:55:44.685Z,17.40
2018-06-19T04:56:48.606Z,17.50
2018-06-19T04:57:52.369Z,17.50
2018-06-19T04:58:56.089Z,17.40
2018-06-19T04:59:59.735Z,17.50
2018-06-19T05:01:03.513Z,17.50
2018-06-19T05:02:07.119Z,17.50
2018-06-19T05:03:10.970Z,17.50
2018-06-19T05:04:15.152Z,17.50
2018-06-19T05:05:18.925Z,17.50
2018-06-19T05:06:22.753Z,17.60
2018-06-19T05:07:26.445Z,17.60
2018-06-19T05:08:30.175Z,17.60
2018-06-19T05:09:33.858Z,17.70
2018-06-19T05:10:37.488Z,17.60
2018-06-19T05:12:45.001Z,17.60
2018-06-19T05:13:48.680Z,17.60
2018-06-19T05:14:52.354Z,17.60
2018-06-19T05:15:55.973Z,17.60
2018-06-19T05:16:59.647Z,17.70
2018-06-19T05:18:03.433Z,17.60
2018-06-19T05:19:07.157Z,17.60
2018-06-19T05:20:11.141Z,17.50
2018-06-19T05:21:14.906Z,17.50
2018-06-19T05:22:18.833Z,17.50
2018-06-19T05:23:22.605Z,17.60
2018-06-19T05:24:26.306Z,17.60
2018-06-19T05:25:30.037Z,17.60
2018-06-19T05:26:33.852Z,17.70
2018-06-19T05:27:37.423Z,17.70
2018-06-19T05:28:41.150Z,17.80
2018-06-19T05:29:44.860Z,17.80
2018-06-19T05:30:48.716Z,18.00
2018-06-19T05:31:52.366Z,18.00
2018-06-19T05:32:56.159Z,17.90
2018-06-19T05:34:00.045Z,18.00
2018-06-19T05:35:03.755Z,18.00
2018-06-19T05:36:07.420Z,18.10
2018-06-19T05:37:12.509Z,18.20
2018-06-19T05:38:16.117Z,18.20
2018-06-19T05:39:19.894Z,18.20
2018-06-19T05:40:23.597Z,18.20
2018-06-19T05:41:27.454Z,18.20
2018-06-19T05:42:31.247Z,18.20
2018-06-19T05:43:35.119Z,18.20
2018-06-19T05:44:38.897Z,18.20
2018-06-19T05:45:42.610Z,18.30
2018-06-19T05:46:46.331Z,18.30
2018-06-19T05:47:50.203Z,18.20
2018-06-19T05:48:53.979Z,18.20
2018-06-19T05:49:57.598Z,18.30
2018-06-19T05:51:01.363Z,18.30
2018-06-19T05:52:06.093Z,18.30
2018-06-19T05:53:09.813Z,18.30
2018-06-19T05:54:13.867Z,18.40
2018-06-19T05:55:17.475Z,18.40
2018-06-19T05:56:21.120Z,18.30
2018-06-19T05:57:24.858Z,18.30
2018-06-19T05:58:28.571Z,18.30
2018-06-19T05:59:32.276Z,18.30
2018-06-19T06:00:36.073Z,18.40
2018-06-19T06:01:39.693Z,18.40
2018-06-19T06:02:43.402Z,18.40
2018-06-19T06:03:47.104Z,18.40
2018-06-19T06:04:51.478Z,18.30
2018-06-19T06:05:55.215Z,18.20
2018-06-19T06:06:59.030Z,18.10
2018-06-19T06:08:02.798Z,18.10
2018-06-19T06:09:08.898Z,18.10
2018-06-19T06:10:13.571Z,18.00
2018-06-19T06:11:17.243Z,18.00
2018-06-19T06:12:20.960Z,18.00
2018-06-19T06:13:24.914Z,18.00
2018-06-19T06:14:28.710Z,18.10
2018-06-19T06:15:32.533Z,18.00
2018-06-19T06:16:36.415Z,18.20
2018-06-19T06:17:40.217Z,18.30
2018-06-19T06:18:44.097Z,18.20
2018-06-19T06:19:47.932Z,18.20
2018-06-19T06:20:51.918Z,18.20
2018-06-19T06:21:55.673Z,18.10
2018-06-19T06:22:59.299Z,18.10
2018-06-19T06:24:03.016Z,18.10
2018-06-19T06:25:06.831Z,18.10
2018-06-19T06:26:10.840Z,18.00
2018-06-19T06:27:14.618Z,18.10
2018-06-19T06:28:18.454Z,18.20
2018-06-19T06:29:22.448Z,18.30
2018-06-19T06:30:26.518Z,18.50
2018-06-19T06:31:30.312Z,18.60
2018-06-19T06:32:34.022Z,18.50
2018-06-19T06:33:37.901Z,18.50
2018-06-19T06:34:41.887Z,18.60
2018-06-19T06:35:46.055Z,18.70
2018-06-19T06:36:50.307Z,18.60
2018-06-19T06:37:54.112Z,18.70
2018-06-19T06:38:57.782Z,18.60
2018-06-19T06:40:01.422Z,18.70
2018-06-19T06:41:05.346Z,18.80
2018-06-19T06:42:09.262Z,18.90
2018-06-19T06:43:13.883Z,18.80
2018-06-19T06:45:21.180Z,18.90
2018-06-19T06:46:25.032Z,19.00
2018-06-19T06:47:28.814Z,19.20
2018-06-19T06:48:32.697Z,19.30
2018-06-19T06:49:36.458Z,19.40
2018-06-19T06:50:40.207Z,19.50
2018-06-19T06:51:43.920Z,19.50
2018-06-19T06:52:47.773Z,19.50
2018-06-19T06:53:51.555Z,19.50
2018-06-19T06:54:55.352Z,19.60
2018-06-19T06:55:59.190Z,19.70
2018-06-19T06:57:02.892Z,19.70
2018-06-19T06:58:06.643Z,19.80
2018-06-19T06:59:10.515Z,19.80
2018-06-19T07:00:14.530Z,19.80
2018-06-19T07:01:18.571Z,19.90
2018-06-19T07:02:22.452Z,20.00
2018-06-19T07:03:26.182Z,20.10
2018-06-19T07:04:30.119Z,20.40
2018-06-19T07:05:33.969Z,20.60
2018-06-19T07:06:37.912Z,20.70
2018-06-19T07:07:41.923Z,20.80
2018-06-19T07:08:45.512Z,20.90
2018-06-19T07:09:49.268Z,20.90
2018-06-19T07:10:53.399Z,21.00
2018-06-19T07:11:57.389Z,21.10
2018-06-19T07:13:01.077Z,21.10
2018-06-19T07:14:04.783Z,21.10
2018-06-19T07:15:08.633Z,21.10
2018-06-19T07:16:12.419Z,21.10
2018-06-19T07:17:16.524Z,21.10
2018-06-19T07:18:20.465Z,21.20
2018-06-19T07:19:24.369Z,21.20
2018-06-19T07:20:28.113Z,21.30
2018-06-19T07:21:31.839Z,21.40
2018-06-19T07:22:35.496Z,21.40
2018-06-19T07:37:56.587Z,21.60
2018-06-19T07:39:01.352Z,21.60
2018-06-19T07:40:05.807Z,21.60
2018-06-19T07:41:09.307Z,21.70
2018-06-19T07:42:12.952Z,21.50
2018-06-19T07:43:16.719Z,21.50
2018-06-19T07:44:20.798Z,21.50
2018-06-19T07:45:24.996Z,21.40
2018-06-19T07:46:28.774Z,21.30
2018-06-19T07:47:32.913Z,21.40
2018-06-19T07:48:36.488Z,21.40
2018-06-19T07:49:40.246Z,21.30
2018-06-19T07:50:45.344Z,21.20
2018-06-19T07:51:49.498Z,21.20
2018-06-19T07:52:53.636Z,21.30
2018-06-19T07:53:57.141Z,21.20
2018-06-19T07:55:12.336Z,21.20
2018-06-19T07:56:15.958Z,21.00
2018-06-19T07:57:20.281Z,20.90
2018-06-19T07:58:24.221Z,20.80
2018-06-19T07:59:27.799Z,20.80
2018-06-19T08:00:32.399Z,20.80
2018-06-19T08:01:35.888Z,20.80
2018-06-19T08:02:39.444Z,20.70
2018-06-19T08:03:42.950Z,20.80
2018-06-19T08:04:47.557Z,20.60
2018-06-19T08:05:51.105Z,20.60
2018-06-19T08:06:55.106Z,20.70
2018-06-19T08:07:58.581Z,20.80
2018-06-19T08:09:03.652Z,20.90
2018-06-19T08:10:07.148Z,21.00
2018-06-19T08:11:10.808Z,21.30
2018-06-19T08:13:18.257Z,21.60
2018-06-19T08:14:21.784Z,21.70
2018-06-19T08:15:25.746Z,21.70
2018-06-19T08:16:29.276Z,21.70
2018-06-19T08:17:32.882Z,21.80
2018-06-19T08:18:36.783Z,21.70
2018-06-19T08:20:50.835Z,21.70
2018-06-19T08:21:55.143Z,21.60
2018-06-19T08:22:58.933Z,21.50
2018-06-19T08:24:02.484Z,21.60
2018-06-19T08:25:06.057Z,21.60
2018-06-19T08:26:09.566Z,21.70
2018-06-19T08:27:14.225Z,21.80
2018-06-19T08:28:17.784Z,21.80
2018-06-19T08:29:21.411Z,21.70
2018-06-19T08:30:25.896Z,21.60
2018-06-19T08:31:29.443Z,21.60
2018-06-19T08:32:33.641Z,21.60
2018-06-19T08:33:37.219Z,21.70
2018-06-19T08:34:41.555Z,21.70
2018-06-19T08:35:45.185Z,21.60
2018-06-19T08:36:48.704Z,21.70
2018-06-19T08:37:52.211Z,21.60
2018-06-19T08:38:55.913Z,21.60
2018-06-19T08:39:59.513Z,21.50
2018-06-19T08:41:03.118Z,21.50
2018-06-19T08:42:06.935Z,21.40
2018-06-19T08:43:10.598Z,21.40
2018-06-19T08:44:14.291Z,21.40
2018-06-19T08:45:17.906Z,21.40
2018-06-19T08:46:22.489Z,21.40
2018-06-19T08:47:26.650Z,21.40
2018-06-19T08:48:30.999Z,21.50
2018-06-19T08:49:34.506Z,21.50
2018-06-19T08:50:38.584Z,21.60
2018-06-19T08:51:42.089Z,21.70
2018-06-19T08:52:45.629Z,21.70
2018-06-19T08:53:49.130Z,21.60
2018-06-19T08:54:52.925Z,21.60
2018-06-19T08:55:56.787Z,21.60
2018-06-19T08:57:00.498Z,21.50
2018-06-19T08:58:04.365Z,21.60
2018-06-19T08:59:07.929Z,21.60
2018-06-19T09:00:11.953Z,21.60
2018-06-19T09:01:15.593Z,21.60
2018-06-19T09:02:19.311Z,21.70
2018-06-19T09:03:23.605Z,21.70
2018-06-19T09:04:27.500Z,21.70
2018-06-19T09:05:31.214Z,21.60
2018-06-19T09:06:34.977Z,21.60
2018-06-19T09:07:39.429Z,21.70
2018-06-19T09:08:42.961Z,21.70
2018-06-19T09:09:46.627Z,21.70
2018-06-19T09:10:50.151Z,21.70
2018-06-19T09:11:53.688Z,21.60
2018-06-19T09:12:57.234Z,21.60
2018-06-19T09:15:03.964Z,21.50
2018-06-19T09:16:07.571Z,21.40
2018-06-19T09:17:11.296Z,21.40
2018-06-19T09:18:14.881Z,21.40
2018-06-19T09:19:18.389Z,21.30
2018-06-19T09:20:22.401Z,21.20
2018-06-19T09:21:26.660Z,21.20
2018-06-19T09:22:30.383Z,21.20
2018-06-19T09:23:34.319Z,21.20
2018-06-19T09:24:38.073Z,21.10
2018-06-19T09:25:41.930Z,21.10
2018-06-19T09:26:45.655Z,21.00
2018-06-19T09:27:49.320Z,20.80
2018-06-19T09:28:52.864Z,20.80
2018-06-19T09:29:56.577Z,20.80
2018-06-19T09:31:00.162Z,20.80
2018-06-19T09:32:03.751Z,20.90
2018-06-19T09:33:07.905Z,21.00
2018-06-19T09:34:11.837Z,20.90
2018-06-19T09:35:16.164Z,20.80
2018-06-19T09:36:19.834Z,20.90
2018-06-19T09:37:23.606Z,20.80
2018-06-19T09:38:28.405Z,20.90
2018-06-19T09:39:32.328Z,20.90
2018-06-19T09:40:36.043Z,20.80
2018-06-19T09:41:40.245Z,20.80
2018-06-19T09:42:43.898Z,20.90
2018-06-19T09:43:47.677Z,21.00
2018-06-19T09:44:51.545Z,21.00
2018-06-19T09:45:55.168Z,21.10
2018-06-19T09:46:58.850Z,21.10
2018-06-19T09:48:03.555Z,21.10
2018-06-19T09:49:07.077Z,21.20
2018-06-19T09:50:10.598Z,21.20
2018-06-19T09:51:14.909Z,21.40
2018-06-19T09:52:18.416Z,21.40
2018-06-19T09:53:22.106Z,21.30
2018-06-19T09:54:25.889Z,21.50
2018-06-19T09:55:29.418Z,21.50
2018-06-19T09:56:32.908Z,21.70
2018-06-19T09:57:36.467Z,21.80
2018-06-19T09:58:40.241Z,21.90
2018-06-19T09:59:43.907Z,21.80
2018-06-19T10:00:48.515Z,21.90
2018-06-19T10:01:52.371Z,22.00
2018-06-19T10:02:56.183Z,21.90
2018-06-19T10:03:59.715Z,22.00
2018-06-19T10:05:03.899Z,22.10
2018-06-19T10:06:08.110Z,22.00
2018-06-19T10:07:12.353Z,21.90
2018-06-19T10:08:16.503Z,21.70
2018-06-19T10:09:20.145Z,21.80
2018-06-19T10:11:27.974Z,21.90
2018-06-19T10:12:31.816Z,21.90
2018-06-19T10:13:35.501Z,21.90
2018-06-19T10:14:39.682Z,21.90
2018-06-19T10:15:43.725Z,21.90
2018-06-19T10:16:47.290Z,21.80
2018-06-19T10:17:50.802Z,21.80
2018-06-19T10:18:54.274Z,21.80
2018-06-19T10:19:57.788Z,21.80
2018-06-19T10:21:01.653Z,21.70
2018-06-19T10:22:05.196Z,21.70
2018-06-19T10:23:08.727Z,21.60
2018-06-19T10:24:12.699Z,21.60
2018-06-19T10:25:16.584Z,21.60
2018-06-19T10:26:20.639Z,21.70
2018-06-19T10:27:24.255Z,21.80
2018-06-19T10:28:28.503Z,21.80
2018-06-19T10:29:32.048Z,21.70
2018-06-19T10:30:35.798Z,21.70
2018-06-19T10:31:39.277Z,21.80
2018-06-19T10:33:46.020Z,22.20
2018-06-19T10:34:49.625Z,22.40
2018-06-19T10:35:53.256Z,22.60
2018-06-19T10:36:57.251Z,22.80
2018-06-19T10:38:00.886Z,22.90
2018-06-19T10:39:06.259Z,23.10
2018-06-19T10:40:09.920Z,23.30
2018-06-19T10:41:13.508Z,23.50
2018-06-19T10:42:17.082Z,23.80
2018-06-19T10:43:21.183Z,23.80
2018-06-19T10:44:24.989Z,23.90
2018-06-19T10:45:29.078Z,24.20
2018-06-19T10:46:33.032Z,24.40
2018-06-19T10:47:36.546Z,24.60
2018-06-19T10:49:43.416Z,24.60
2018-06-19T10:50:47.145Z,24.60
2018-06-19T10:51:50.771Z,24.70
2018-06-19T10:52:54.247Z,24.80
2018-06-19T10:53:57.796Z,25.10
2018-06-19T10:55:01.637Z,25.10
2018-06-19T10:56:05.294Z,25.20
2018-06-19T10:57:08.920Z,25.30
2018-06-19T10:58:12.768Z,25.40
2018-06-19T10:59:16.565Z,25.40
2018-06-19T11:00:20.171Z,25.30
2018-06-19T11:01:23.926Z,25.10
2018-06-19T11:02:27.718Z,24.60
2018-06-19T11:03:31.510Z,24.60
2018-06-19T11:04:35.112Z,24.70
2018-06-19T11:05:38.608Z,24.80
2018-06-19T11:06:42.984Z,25.00
2018-06-19T11:07:46.545Z,25.20
2018-06-19T11:08:50.087Z,25.50
2018-06-19T11:09:53.792Z,25.70
2018-06-19T11:10:57.762Z,25.80
2018-06-19T11:12:01.561Z,25.90
2018-06-19T11:13:05.536Z,25.80
2018-06-19T11:23:59.178Z,25.30
2018-06-19T11:25:03.392Z,26.20
2018-06-19T11:26:06.936Z,26.40
2018-06-19T11:27:10.611Z,26.30
2018-06-19T11:28:14.306Z,26.40
2018-06-19T11:29:18.164Z,26.00
2018-06-19T11:30:21.809Z,25.80
2018-06-19T11:31:25.322Z,26.00
2018-06-19T11:32:28.791Z,26.10
2018-06-19T11:33:32.489Z,26.10
2018-06-19T11:34:36.078Z,26.10
2018-06-19T11:35:40.239Z,25.90
2018-06-19T11:36:44.029Z,25.60
2018-06-19T11:37:47.801Z,25.10
2018-06-19T11:38:51.799Z,24.80
2018-06-19T11:39:55.509Z,24.50
2018-06-19T11:40:59.047Z,24.50
2018-06-19T11:42:02.573Z,24.50
2018-06-19T11:43:07.198Z,24.50
2018-06-19T11:44:10.945Z,24.50
2018-06-19T11:45:14.525Z,24.40
2018-06-19T11:46:18.088Z,24.50
2018-06-19T11:47:22.469Z,24.60
2018-06-19T11:48:26.368Z,24.50
2018-06-19T11:49:31.244Z,24.50
2018-06-19T11:50:34.790Z,24.60
2018-06-19T11:51:38.318Z,24.50
2018-06-19T11:52:42.500Z,24.30
2018-06-19T11:53:45.972Z,24.10
2018-06-19T11:54:50.128Z,24.00
2018-06-19T11:55:54.758Z,24.10
2018-06-19T11:56:58.336Z,24.10
2018-06-19T11:58:02.360Z,24.10
2018-06-19T11:59:05.949Z,24.00
2018-06-19T12:00:09.541Z,24.00
2018-06-19T12:01:14.078Z,24.10
2018-06-19T12:02:26.564Z,24.20
2018-06-19T12:03:30.053Z,24.40
2018-06-19T12:04:33.743Z,24.60
2018-06-19T12:05:38.771Z,24.90
2018-06-19T12:06:42.975Z,25.20
2018-06-19T12:07:47.748Z,25.30
2018-06-19T12:08:51.314Z,25.30
2018-06-19T12:09:54.999Z,25.30
2018-06-19T12:10:58.559Z,25.30
2018-06-19T12:12:02.146Z,25.20
2018-06-19T12:13:05.782Z,25.30
2018-06-19T12:14:10.276Z,25.10
2018-06-19T12:15:14.049Z,25.10
2018-06-19T12:16:18.645Z,25.10
2018-06-19T12:17:22.276Z,25.00
2018-06-19T12:18:26.621Z,25.00
2018-06-19T12:19:30.153Z,25.00
2018-06-19T12:20:34.051Z,25.00
2018-06-19T12:21:37.839Z,25.00
2018-06-19T12:22:41.451Z,25.10
2018-06-19T12:23:46.579Z,25.10
2018-06-19T12:24:50.402Z,25.00
2018-06-19T12:25:54.203Z,25.10
2018-06-19T12:26:58.288Z,25.30
2018-06-19T12:28:01.859Z,25.40
2018-06-19T12:29:05.950Z,25.50
2018-06-19T12:30:10.645Z,25.60
2018-06-19T12:31:14.533Z,25.80
2018-06-19T12:32:18.764Z,25.90
2018-06-19T12:33:22.380Z,26.10
2018-06-19T12:34:26.365Z,26.30
2018-06-19T12:35:30.010Z,26.30
2018-06-19T12:36:33.791Z,26.40
2018-06-19T12:37:37.344Z,26.60
2018-06-19T12:38:41.339Z,26.70
2018-06-19T12:39:44.966Z,26.80
2018-06-19T12:40:48.446Z,26.80
2018-06-19T12:41:52.751Z,26.90
2018-06-19T12:42:56.361Z,27.00
2018-06-19T12:44:00.023Z,27.10
2018-06-19T12:45:04.377Z,27.20
2018-06-19T12:46:07.943Z,27.10
2018-06-19T12:47:11.845Z,27.10
2018-06-19T12:48:16.493Z,27.10
2018-06-19T12:50:32.746Z,27.10
2018-06-19T12:51:45.621Z,27.00
2018-06-19T12:53:00.273Z,26.50
2018-06-19T12:54:16.101Z,26.60
2018-06-19T12:55:47.782Z,26.50
2018-06-19T12:56:51.309Z,26.60
2018-06-19T12:57:54.834Z,26.80
2018-06-19T12:58:58.372Z,27.00
2018-06-19T13:00:01.944Z,26.90
2018-06-19T13:01:05.782Z,26.90
2018-06-19T13:02:09.507Z,27.00
2018-06-19T13:03:24.591Z,27.00
2018-06-19T13:04:39.058Z,27.00
2018-06-19T13:05:53.832Z,26.80
2018-06-19T13:06:57.474Z,26.80
2018-06-19T13:08:01.914Z,26.70
2018-06-19T13:09:08.562Z,26.40
2018-06-19T13:10:14.300Z,26.60
2018-06-19T13:11:18.434Z,26.60
2018-06-19T13:12:33.438Z,26.70
2018-06-19T13:13:48.518Z,26.60
2018-06-19T13:14:52.872Z,26.50
2018-06-19T13:15:57.725Z,26.60
2018-06-19T13:17:13.412Z,26.80
2018-06-19T13:18:28.700Z,27.00
2018-06-19T13:19:44.145Z,27.00
2018-06-19T13:20:50.719Z,27.00
2018-06-19T13:21:55.246Z,27.10
2018-06-19T13:23:00.197Z,27.30
2018-06-19T13:24:04.965Z,27.30
2018-06-19T13:25:10.443Z,27.40
2018-06-19T13:26:15.806Z,27.60
2018-06-19T13:27:20.329Z,27.40
2018-06-19T13:29:33.460Z,27.50
2018-06-19T13:31:47.522Z,27.60
2018-06-19T13:32:52.401Z,27.80
2018-06-19T13:33:57.279Z,28.00
2018-06-19T13:35:01.912Z,28.00
2018-06-19T13:36:06.580Z,27.90
2018-06-19T13:37:11.195Z,27.90
2018-06-19T13:38:15.987Z,27.70
2018-06-19T13:39:21.411Z,27.70
2018-06-19T13:42:12.506Z,27.40
2018-06-19T13:43:33.707Z,27.50
2018-06-19T13:44:48.952Z,27.60
2018-06-19T13:45:53.822Z,27.80
2018-06-19T13:46:58.523Z,27.70
2018-06-19T13:48:03.166Z,27.70
2018-06-19T13:49:08.487Z,27.30
2018-06-19T13:50:14.012Z,27.30
2018-06-19T13:51:18.747Z,27.40
2018-06-19T13:52:23.601Z,27.30
2018-06-19T13:53:28.349Z,27.20
2018-06-19T13:54:33.037Z,26.90
2018-06-19T13:56:14.057Z,26.90
2018-06-19T13:57:34.537Z,27.00
2018-06-19T13:58:39.438Z,27.00
2018-06-19T13:59:43.780Z,26.90
2018-06-19T14:00:47.989Z,26.90
2018-06-19T14:01:52.962Z,27.00
2018-06-19T14:02:57.782Z,27.00
2018-06-19T14:04:02.018Z,26.90
2018-06-19T14:05:07.110Z,27.00
2018-06-19T14:06:12.414Z,26.70
2018-06-19T14:07:17.223Z,26.60
2018-06-19T14:08:39.768Z,26.40
2018-06-19T14:09:59.792Z,26.20
2018-06-19T14:11:15.107Z,25.90
2018-06-19T14:13:28.249Z,25.60
2018-06-19T14:14:33.537Z,25.50
2018-06-19T14:15:41.265Z,25.60
2018-06-19T14:16:45.458Z,25.60
2018-06-19T14:17:49.781Z,25.80
2018-06-19T14:18:54.318Z,25.80
2018-06-19T14:19:58.929Z,26.00
2018-06-19T14:21:03.284Z,26.20
2018-06-19T14:22:07.270Z,26.30
2018-06-19T14:23:12.117Z,26.30
2018-06-19T14:24:16.674Z,26.50
2018-06-19T14:25:21.057Z,26.40
2018-06-19T14:26:25.444Z,26.40
2018-06-19T14:27:29.374Z,26.20
2018-06-19T14:28:33.619Z,26.00